Lair, Kentucky
Current Conditions -  °F | °C
As of 11:35 AM on Friday 31 Oct 2014 (Local Time) from KIOB Reporting Station
Light Rain Light Rain  
Wind Chill: 45°   Ceiling: 2600
Heat Index: 45°   Visibility: 5mi
Dew Point: 45°   Wind: 0mph
Humidity: 100%   Direction: NA
Pressure: 29.99"   Gusts: NA
Location:  38.4145°N, 84.2859°W
Report Text: KIOB 311535Z AUTO 00000KT 5SM -RA SCT005 BKN026 OVC033 07/07 A2999 RMK AO2 P0002
Loading
Personal Weather Stations






























Interactive Weather Map
Tropical Storm Tracking
New forecast layout! Learn more

10-Day Weather Forecast

Advertisements
Track Severe Weather on mobile